Time;durP1;ratioP1;P1;durP2;ratioP2;P2;SDS_P1;SDS_P2;PMS_P1;PMS_P2;Temp;Humidity;BMP_temperature;BMP_pressure;BME280_temperature;BME280_humidity;BME280_pressure;Samples;Min_cycle;Max_cycle;Signal;HPM_P1;HPM_P2
2023/10/11 00:00:48;;;;;;;1999.90;999.90;;;17.10;99.90;;;;;;5113669;28;20032;-67
2023/10/11 00:03:28;;;;;;;1999.90;999.90;;;17.10;99.90;;;;;;5102718;28;20438;-67
2023/10/11 00:05:55;;;;;;;1999.90;999.90;;;17.10;99.90;;;;;;5104472;28;20028;-67
2023/10/11 00:08:26;;;;;;;1999.90;999.90;;;17.10;99.90;;;;;;5100349;28;20035;-67
2023/10/11 00:10:53;;;;;;;1999.90;999.90;;;17.10;99.90;;;;;;5112170;28;20035;-67
2023/10/11 00:13:21;;;;;;;1999.90;999.90;;;17.10;99.90;;;;;;5111302;28;20145;-67
2023/10/11 00:15:49;;;;;;;1999.90;999.90;;;17.10;99.90;;;;;;5097878;28;20112;-67
2023/10/11 00:18:26;;;;;;;1999.90;999.90;;;17.10;99.90;;;;;;5110168;28;20055;-66
2023/10/11 00:20:56;;;;;;;1999.90;999.90;;;17.00;99.90;;;;;;5105341;28;20024;-67
2023/10/11 00:23:24;;;;;;;1999.90;999.90;;;17.00;99.90;;;;;;5084408;28;20446;-67
2023/10/11 00:25:54;;;;;;;1999.90;999.90;;;17.00;99.90;;;;;;5104726;28;20030;-67
2023/10/11 00:28:26;;;;;;;1999.90;999.90;;;17.00;99.90;;;;;;5104987;28;20023;-67
2023/10/11 00:30:57;;;;;;;1999.90;999.90;;;17.00;99.90;;;;;;5094725;28;20077;-66
2023/10/11 00:33:24;;;;;;;1999.90;999.90;;;17.10;99.90;;;;;;5111060;28;20118;-67
2023/10/11 00:35:51;;;;;;;1999.90;999.90;;;17.10;99.90;;;;;;5105173;28;20099;-67
2023/10/11 00:38:29;;;;;;;1999.90;999.90;;;17.10;99.90;;;;;;5114931;28;20088;-67
2023/10/11 00:41:12;;;;;;;1999.90;999.90;;;17.10;99.90;;;;;;5104955;28;20088;-67
2023/10/11 00:43:41;;;;;;;1999.90;999.90;;;17.00;99.90;;;;;;5090949;28;20024;-67
2023/10/11 00:46:08;;;;;;;1999.90;999.90;;;17.00;99.90;;;;;;5085722;28;20115;-67
2023/10/11 00:51:32;;;;;;;1999.90;999.90;;;17.10;99.90;;;;;;5105893;28;20047;-67
2023/10/11 00:54:00;;;;;;;1999.90;999.90;;;17.10;99.90;;;;;;5085536;28;20048;-78
2023/10/11 00:56:31;;;;;;;1999.90;999.90;;;17.00;99.90;;;;;;5099016;28;20370;-67
2023/10/11 00:59:03;;;;;;;1999.90;999.90;;;17.00;99.90;;;;;;5114533;28;20063;-68
2023/10/11 01:01:29;;;;;;;1999.90;999.90;;;17.00;99.90;;;;;;5099338;28;20032;-82
2023/10/11 01:03:55;;;;;;;1999.90;999.90;;;17.00;99.90;;;;;;5103792;28;20027;-67
2023/10/11 01:06:25;;;;;;;1999.90;999.90;;;17.00;99.90;;;;;;5110977;28;20024;-67
2023/10/11 01:08:52;;;;;;;1999.90;999.90;;;17.00;99.90;;;;;;5107024;28;20323;-67
2023/10/11 01:11:18;;;;;;;;;;;17.00;99.90;;;;;;5112112;28;20012;-67
2023/10/11 01:13:50;;;;;;;1999.90;999.90;;;16.90;99.90;;;;;;5098404;28;20004;-67
2023/10/11 01:16:17;;;;;;;1999.90;999.90;;;16.90;99.90;;;;;;5099015;28;20036;-67
2023/10/11 01:18:43;;;;;;;1999.90;999.90;;;16.90;99.90;;;;;;5105372;28;20031;-67
2023/10/11 01:21:12;;;;;;;1999.90;999.90;;;16.90;99.90;;;;;;5110235;28;20012;-67
2023/10/11 01:23:38;;;;;;;1999.90;999.90;;;16.90;99.90;;;;;;5103087;28;20017;-67
2023/10/11 01:26:08;;;;;;;1999.90;999.90;;;16.90;99.90;;;;;;5105121;28;20084;-68
2023/10/11 01:28:41;;;;;;;1999.90;999.90;;;16.90;99.90;;;;;;5109088;28;20804;-67
2023/10/11 01:31:09;;;;;;;1999.90;999.90;;;16.90;99.90;;;;;;5099819;28;20106;-79
2023/10/11 01:33:42;;;;;;;1999.90;999.90;;;16.90;99.90;;;;;;5098914;28;20043;-68
2023/10/11 01:36:10;;;;;;;1999.90;999.90;;;16.90;99.90;;;;;;5099413;28;20318;-67
2023/10/11 01:38:46;;;;;;;1999.90;999.90;;;16.80;99.90;;;;;;5106441;28;20318;-67
2023/10/11 01:41:23;;;;;;;1999.90;999.90;;;16.80;99.90;;;;;;5096471;28;20032;-67
2023/10/11 01:43:49;;;;;;;;;;;16.80;99.90;;;;;;5101388;28;20104;-67
2023/10/11 01:46:35;;;;;;;1999.90;999.90;;;16.70;99.90;;;;;;5103686;28;19922;-67
2023/10/11 01:49:01;;;;;;;1999.90;999.90;;;16.70;99.90;;;;;;5104826;28;20027;-68
2023/10/11 01:51:27;;;;;;;1999.90;999.90;;;16.70;99.90;;;;;;5095926;28;20098;-67
2023/10/11 01:54:11;;;;;;;1999.90;999.90;;;16.70;99.90;;;;;;5106460;28;20326;-68
2023/10/11 01:56:38;;;;;;;1999.90;999.90;;;16.70;99.90;;;;;;5101212;28;20101;-67
2023/10/11 01:59:04;;;;;;;1999.90;999.90;;;16.60;99.90;;;;;;5104300;28;20445;-67
2023/10/11 02:01:38;;;;;;;1999.90;999.90;;;16.60;99.90;;;;;;5111499;28;20042;-67
2023/10/11 02:04:10;;;;;;;1999.90;999.90;;;16.60;99.90;;;;;;5107793;28;20048;-67
2023/10/11 02:06:38;;;;;;;1999.90;999.90;;;16.60;99.90;;;;;;5104787;28;20016;-79
2023/10/11 02:09:04;;;;;;;1999.90;999.90;;;16.50;99.90;;;;;;5103369;28;20028;-67
2023/10/11 02:11:30;;;;;;;1999.90;999.90;;;16.50;99.90;;;;;;5093206;28;20318;-67
2023/10/11 02:14:00;;;;;;;1999.90;999.90;;;16.50;99.90;;;;;;5100099;28;20323;-67
2023/10/11 02:16:28;;;;;;;1999.90;999.90;;;16.50;99.90;;;;;;5099658;28;20340;-67
2023/10/11 02:19:00;;;;;;;1999.90;999.90;;;16.50;99.90;;;;;;5103336;28;20058;-67
2023/10/11 02:21:33;;;;;;;1999.90;999.90;;;16.50;99.90;;;;;;5101446;28;20348;-67
2023/10/11 02:24:03;;;;;;;1999.90;999.90;;;16.50;99.90;;;;;;5096882;28;20051;-67
2023/10/11 02:26:34;;;;;;;1999.90;999.90;;;16.40;99.90;;;;;;5103709;28;20019;-67
2023/10/11 02:29:10;;;;;;;1999.90;999.90;;;16.40;99.90;;;;;;5106830;28;20024;-75
2023/10/11 02:31:36;;;;;;;1999.90;999.90;;;16.40;99.90;;;;;;5099743;28;20407;-67
2023/10/11 02:34:14;;;;;;;1999.90;999.90;;;16.40;99.90;;;;;;5103430;28;20062;-66
2023/10/11 02:36:44;;;;;;;1999.90;999.90;;;16.40;99.90;;;;;;5105267;28;20102;-67
2023/10/11 02:39:20;;;;;;;1999.90;999.90;;;16.30;99.90;;;;;;5100028;28;20040;-67
2023/10/11 02:41:50;;;;;;;1999.90;999.90;;;16.30;99.90;;;;;;5106916;28;20037;-67
2023/10/11 02:44:16;;;;;;;1999.90;999.90;;;16.30;99.90;;;;;;5102982;28;20027;-67
2023/10/11 02:46:44;;;;;;;1999.90;999.90;;;16.30;99.90;;;;;;5104381;28;20029;-67
2023/10/11 02:49:19;;;;;;;1999.90;999.90;;;16.30;99.90;;;;;;5109699;28;20256;-67
2023/10/11 02:51:52;;;;;;;1999.90;999.90;;;16.20;99.90;;;;;;5109147;28;20035;-67
2023/10/11 02:54:33;;;;;;;1999.90;999.90;;;16.20;99.90;;;;;;5108641;28;20028;-67
2023/10/11 02:56:59;;;;;;;1999.90;999.90;;;16.20;99.90;;;;;;5109178;28;20417;-67
2023/10/11 02:59:25;;;;;;;1999.90;999.90;;;16.20;99.90;;;;;;5082883;28;20047;-67
2023/10/11 03:02:03;;;;;;;1999.90;999.90;;;16.10;99.90;;;;;;5109202;28;20263;-67
2023/10/11 03:04:39;;;;;;;1999.90;999.90;;;16.20;99.90;;;;;;5098479;28;20032;-66
2023/10/11 03:07:10;;;;;;;1999.90;999.90;;;16.20;99.90;;;;;;5098822;28;20024;-67
2023/10/11 03:09:37;;;;;;;1999.90;999.90;;;16.20;99.90;;;;;;5098549;28;20118;-78
2023/10/11 03:12:09;;;;;;;;;;;16.20;99.90;;;;;;5103687;28;20070;-66
2023/10/11 03:14:41;;;;;;;1999.90;999.90;;;16.20;99.90;;;;;;5103787;28;19907;-67
2023/10/11 03:17:13;;;;;;;1999.90;999.90;;;16.20;99.90;;;;;;5106478;28;20019;-67
2023/10/11 03:19:42;;;;;;;1999.90;999.90;;;16.10;99.90;;;;;;5104293;28;20058;-66
2023/10/11 03:22:09;;;;;;;1999.90;999.90;;;16.20;99.90;;;;;;5101825;28;20319;-67
2023/10/11 03:24:40;;;;;;;1999.90;999.90;;;16.20;99.90;;;;;;5101322;28;20347;-67
2023/10/11 03:27:10;;;;;;;1999.90;999.90;;;16.20;99.90;;;;;;5104687;28;20024;-66
2023/10/11 03:29:36;;;;;;;1999.90;999.90;;;16.20;99.90;;;;;;5102940;28;20295;-67
2023/10/11 03:32:04;;;;;;;1999.90;999.90;;;16.20;99.90;;;;;;5110329;28;20039;-78
2023/10/11 03:34:29;;;;;;;1999.90;999.90;;;16.20;99.90;;;;;;5084077;28;20059;-67
2023/10/11 03:36:59;;;;;;;1999.90;999.90;;;16.20;99.90;;;;;;5106577;28;20090;-67
2023/10/11 03:42:07;;;;;;;1999.90;999.90;;;16.20;99.90;;;;;;5101991;28;20028;-67
2023/10/11 03:44:36;;;;;;;1999.90;999.90;;;16.20;99.90;;;;;;5104317;28;20026;-66
2023/10/11 03:47:07;;;;;;;1999.90;999.90;;;16.20;99.90;;;;;;5110123;28;20028;-77
2023/10/11 03:52:19;;;;;;;1999.90;999.90;;;16.20;99.90;;;;;;5110101;28;20024;-66
2023/10/11 03:54:46;;;;;;;1999.90;999.90;;;16.30;99.90;;;;;;5107787;28;20020;-66
2023/10/11 03:57:11;;;;;;;1999.90;999.90;;;16.20;99.90;;;;;;5105438;28;20327;-66
2023/10/11 03:59:47;;;;;;;1999.90;999.90;;;16.20;99.90;;;;;;5112693;28;20068;-67
2023/10/11 04:02:17;;;;;;;1999.90;999.90;;;16.30;99.90;;;;;;5101937;28;20070;-66
2023/10/11 04:04:49;;;;;;;1999.90;999.90;;;16.20;99.90;;;;;;5115668;28;20330;-66
2023/10/11 04:07:16;;;;;;;1999.90;999.90;;;16.30;99.90;;;;;;5088441;28;20023;-67
2023/10/11 04:09:45;;;;;;;1999.90;999.90;;;16.20;99.90;;;;;;5114063;28;20145;-67
2023/10/11 04:12:12;;;;;;;1999.90;999.90;;;16.20;99.90;;;;;;5105053;28;20079;-67
2023/10/11 04:14:41;;;;;;;1999.90;999.90;;;16.20;99.90;;;;;;5102579;28;20020;-67
2023/10/11 04:17:14;;;;;;;1999.90;999.90;;;16.20;99.90;;;;;;5100583;28;20032;-66
2023/10/11 04:19:42;;;;;;;1999.90;999.90;;;16.20;99.90;;;;;;5109911;28;20046;-66
2023/10/11 04:22:16;;;;;;;1999.90;999.90;;;16.20;99.90;;;;;;5081881;28;20077;-78
2023/10/11 04:24:43;;;;;;;1999.90;999.90;;;16.20;99.90;;;;;;5112231;28;20020;-67
2023/10/11 04:29:51;;;;;;;1999.90;999.90;;;16.10;99.90;;;;;;5105217;28;20318;-67
2023/10/11 04:35:02;;;;;;;1999.90;999.90;;;16.20;99.90;;;;;;5106414;28;20589;-77
2023/10/11 04:37:30;;;;;;;1999.90;999.90;;;16.20;99.90;;;;;;5106879;28;20075;-67
2023/10/11 04:40:00;;;;;;;1999.90;999.90;;;16.30;99.90;;;;;;5115591;28;20019;-67
2023/10/11 04:42:29;;;;;;;1999.90;999.90;;;16.20;99.90;;;;;;5089241;28;20031;-67
2023/10/11 04:44:56;;;;;;;1999.90;999.90;;;16.20;99.90;;;;;;5105444;28;20030;-67
2023/10/11 04:47:23;;;;;;;1999.90;999.90;;;16.20;99.90;;;;;;5102950;28;20016;-66
2023/10/11 04:49:52;;;;;;;1999.90;999.90;;;16.20;99.90;;;;;;5100557;28;20052;-78
2023/10/11 04:52:35;;;;;;;1999.90;999.90;;;16.20;99.90;;;;;;5100048;28;20032;-67
2023/10/11 04:55:12;;;;;;;1999.90;999.90;;;16.30;99.90;;;;;;5104422;28;20434;-66
2023/10/11 04:57:49;;;;;;;1999.90;999.90;;;16.30;99.90;;;;;;5095909;28;20350;-67
2023/10/11 05:00:18;;;;;;;1999.90;999.90;;;16.30;99.90;;;;;;5112499;28;20024;-67
2023/10/11 05:02:50;;;;;;;1999.90;999.90;;;16.30;99.90;;;;;;5100774;28;20310;-67
2023/10/11 05:05:19;;;;;;;1999.90;999.90;;;16.40;99.90;;;;;;5101052;28;20039;-67
2023/10/11 05:07:55;;;;;;;1999.90;999.90;;;16.30;99.90;;;;;;5078968;28;20020;-66
2023/10/11 05:12:50;;;;;;;1999.90;999.90;;;16.30;99.90;;;;;;5102095;28;20020;-67
2023/10/11 05:15:16;;;;;;;1999.90;999.90;;;16.30;99.90;;;;;;5097012;28;20020;-67
2023/10/11 05:17:49;;;;;;;1999.90;999.90;;;16.30;99.90;;;;;;5104290;28;20026;-75
2023/10/11 05:25:39;;;;;;;1999.90;999.90;;;16.30;99.90;;;;;;5106393;28;20114;-76
2023/10/11 05:28:26;;;;;;;1999.90;999.90;;;16.30;99.90;;;;;;5104919;28;20032;-67
2023/10/11 05:31:19;;;;;;;1999.90;999.90;;;16.30;99.90;;;;;;5098438;28;20031;-67
2023/10/11 05:33:57;;;;;;;1999.90;999.90;;;16.30;99.90;;;;;;5096690;28;20035;-68
2023/10/11 05:50:50;;;;;;;1999.90;999.90;;;16.30;99.90;;;;;;5101416;28;20445;-67
2023/10/11 05:52:55;;;;;;;1999.90;999.90;;;16.30;99.90;;;;;;5102010;28;20049;-67
2023/10/11 05:55:24;;;;;;;1999.90;999.90;;;16.30;99.90;;;;;;5103072;28;20049;-67
2023/10/11 05:57:50;;;;;;;1999.90;999.90;;;16.30;99.90;;;;;;5105857;28;20406;-66
2023/10/11 06:00:23;;;;;;;1999.90;999.90;;;16.30;99.90;;;;;;5102629;28;20024;-67
2023/10/11 06:02:51;;;;;;;1999.90;999.90;;;16.30;99.90;;;;;;5103372;28;20020;-66
2023/10/11 06:05:22;;;;;;;1999.90;999.90;;;16.40;99.90;;;;;;5095295;28;20028;-67
2023/10/11 06:08:00;;;;;;;1999.90;999.90;;;16.30;99.90;;;;;;5101618;28;20076;-67
2023/10/11 06:10:35;;;;;;;1999.90;999.90;;;16.40;99.90;;;;;;5099826;28;20062;-67
2023/10/11 06:13:02;;;;;;;1999.90;999.90;;;16.40;99.90;;;;;;5102999;28;20475;-67
2023/10/11 06:15:28;;;;;;;1999.90;999.90;;;16.50;99.90;;;;;;5095098;28;20028;-67
2023/10/11 06:17:55;;;;;;;1999.90;999.90;;;16.50;99.90;;;;;;5108591;28;20300;-67
2023/10/11 06:20:26;;;;;;;1999.90;999.90;;;16.50;99.90;;;;;;5103363;28;20023;-67
2023/10/11 06:22:53;;;;;;;1999.90;999.90;;;16.60;99.90;;;;;;5102008;28;20042;-77
2023/10/11 06:25:23;;;;;;;1999.90;999.90;;;16.60;99.90;;;;;;5103718;28;20034;-67
2023/10/11 06:30:21;;;;;;;1999.90;999.90;;;16.70;99.90;;;;;;5113958;28;20069;-79
2023/10/11 06:32:49;;;;;;;1999.90;999.90;;;16.70;99.90;;;;;;5087140;28;20296;-67
2023/10/11 06:35:23;;;;;;;1999.90;999.90;;;16.80;99.90;;;;;;5105795;28;20035;-67
2023/10/11 06:37:53;;;;;;;1999.90;999.90;;;16.80;99.90;;;;;;5114029;28;20024;-79
2023/10/11 06:40:47;;;;;;;1999.90;999.90;;;16.80;99.90;;;;;;5100947;28;20180;-67
2023/10/11 06:43:13;;;;;;;1999.90;999.90;;;16.90;99.90;;;;;;5090435;28;20114;-80
2023/10/11 06:45:42;;;;;;;1999.90;999.90;;;16.90;99.90;;;;;;5111337;28;20102;-66
2023/10/11 06:48:10;;;;;;;1999.90;999.90;;;16.90;99.90;;;;;;5108957;28;20035;-67
2023/10/11 06:50:39;;;;;;;1999.90;999.90;;;17.00;99.90;;;;;;5110727;28;20064;-80
2023/10/11 06:53:09;;;;;;;1999.90;999.90;;;16.90;99.90;;;;;;5089267;28;20023;-67
2023/10/11 06:55:36;;;;;;;1999.90;999.90;;;17.00;99.90;;;;;;5112488;28;20016;-67
2023/10/11 06:58:24;;;;;;;1999.90;999.90;;;17.10;99.90;;;;;;5108133;28;20432;-81
2023/10/11 07:00:49;;;;;;;1999.90;999.90;;;17.00;99.90;;;;;;5103395;28;20065;-67
2023/10/11 07:06:10;;;;;;;1999.90;999.90;;;17.10;99.90;;;;;;5111106;28;20028;-67
2023/10/11 07:08:36;;;;;;;1999.90;999.90;;;17.10;99.90;;;;;;5109109;28;20023;-67
2023/10/11 07:13:49;;;;;;;1999.90;999.90;;;17.10;99.90;;;;;;5097846;28;20276;-67
2023/10/11 07:16:22;;;;;;;1999.90;999.90;;;17.10;99.90;;;;;;5095063;28;20028;-68
2023/10/11 07:18:54;;;;;;;1999.90;999.90;;;17.20;99.90;;;;;;5112245;28;20414;-67
2023/10/11 07:21:25;;;;;;;1999.90;999.90;;;17.20;99.90;;;;;;5095312;28;20045;-67
2023/10/11 07:26:23;;;;;;;1999.90;999.90;;;17.20;99.90;;;;;;5096106;28;20120;-67
2023/10/11 07:28:52;;;;;;;1999.90;999.90;;;17.20;99.90;;;;;;5100206;28;20115;-67
2023/10/11 07:31:19;;;;;;;1999.90;999.90;;;17.20;99.90;;;;;;5098662;28;20090;-67
2023/10/11 07:34:08;;;;;;;1999.90;999.90;;;17.20;99.90;;;;;;5105911;28;20292;-67
2023/10/11 07:36:32;;;;;;;1999.90;999.90;;;17.20;99.90;;;;;;5099493;27;20127;-78
2023/10/11 07:39:14;;;;;;;;;;;17.20;99.90;;;;;;5103077;27;20032;-67
2023/10/11 07:41:43;;;;;;;1999.90;999.90;;;17.20;99.90;;;;;;5110978;27;19966;-67
2023/10/11 07:44:10;;;;;;;1999.90;999.90;;;17.30;99.90;;;;;;5094412;27;20031;-67
2023/10/11 07:46:38;;;;;;;1999.90;999.90;;;17.30;99.90;;;;;;5090013;27;20474;-67
2023/10/11 07:49:04;;;;;;;1999.90;999.90;;;17.30;99.90;;;;;;5097339;28;20035;-67
2023/10/11 07:51:30;;;;;;;;;;;17.30;99.90;;;;;;5116723;27;20063;-67
2023/10/11 07:53:56;;;;;;;1999.90;999.90;;;17.40;99.90;;;;;;5106177;27;20232;-67
2023/10/11 07:56:22;;;;;;;1999.90;999.90;;;17.40;99.90;;;;;;5119271;27;20043;-67
2023/10/11 07:58:49;;;;;;;1999.90;999.90;;;17.40;99.90;;;;;;5113906;27;20364;-67
2023/10/11 08:01:16;;;;;;;1999.90;999.90;;;17.40;99.90;;;;;;5090384;28;20368;-67
2023/10/11 08:03:44;;;;;;;1999.90;999.90;;;17.40;99.90;;;;;;5103950;27;20091;-67
2023/10/11 08:06:13;;;;;;;1999.90;999.90;;;17.40;99.90;;;;;;5112805;27;20100;-67
2023/10/11 08:08:40;;;;;;;1999.90;999.90;;;17.40;99.90;;;;;;5112923;27;20326;-67
2023/10/11 08:11:18;;;;;;;1999.90;999.90;;;17.40;99.90;;;;;;5115192;27;20329;-67
2023/10/11 08:13:47;;;;;;;1999.90;999.90;;;17.40;99.90;;;;;;5110733;27;20035;-68
2023/10/11 08:16:17;;;;;;;1999.90;999.90;;;17.40;99.90;;;;;;5112181;27;20035;-76
2023/10/11 08:18:45;;;;;;;1999.90;999.90;;;17.50;99.90;;;;;;5106258;27;20028;-67
2023/10/11 08:21:11;;;;;;;1999.90;999.90;;;17.50;99.90;;;;;;5089377;28;20032;-67
2023/10/11 08:23:42;;;;;;;1999.90;999.90;;;17.50;99.90;;;;;;5106635;27;20077;-67
2023/10/11 08:26:14;;;;;;;1999.90;999.90;;;17.50;99.90;;;;;;5106297;27;20024;-67
2023/10/11 08:28:47;;;;;;;1999.90;999.90;;;17.50;99.90;;;;;;5119001;27;20116;-67
2023/10/11 08:31:35;;;;;;;1999.90;999.90;;;17.50;99.90;;;;;;5112016;27;20031;-67
2023/10/11 08:34:04;;;;;;;1999.90;999.90;;;17.50;99.90;;;;;;5117085;27;20028;-79
2023/10/11 08:36:36;;;;;;;1999.90;999.90;;;17.50;99.90;;;;;;5109586;27;20032;-68
2023/10/11 08:39:05;;;;;;;1999.90;999.90;;;17.50;99.90;;;;;;5104352;27;20035;-68
2023/10/11 08:41:32;;;;;;;1999.90;999.90;;;17.60;99.90;;;;;;5098970;27;20031;-67
2023/10/11 08:44:01;;;;;;;1999.90;999.90;;;17.50;99.90;;;;;;5115072;27;20027;-66
2023/10/11 08:46:31;;;;;;;1999.90;999.90;;;17.50;99.90;;;;;;5104862;28;20402;-67
2023/10/11 08:49:00;;;;;;;1999.90;999.90;;;17.50;99.90;;;;;;5112796;27;20032;-78
2023/10/11 08:51:36;;;;;;;1999.90;999.90;;;17.50;99.90;;;;;;5103760;27;20078;-67
2023/10/11 08:54:03;;;;;;;1999.90;999.90;;;17.50;99.90;;;;;;5116227;27;20031;-67
2023/10/11 08:56:32;;;;;;;1999.90;999.90;;;17.50;99.90;;;;;;5110273;27;20034;-82
2023/10/11 08:59:02;;;;;;;1999.90;999.90;;;17.50;99.90;;;;;;5106303;27;20045;-67
2023/10/11 09:01:28;;;;;;;1999.90;999.90;;;17.50;99.90;;;;;;5101832;28;20038;-67
2023/10/11 09:04:11;;;;;;;1999.90;999.90;;;17.50;99.90;;;;;;5100946;28;20031;-67
2023/10/11 09:06:42;;;;;;;1999.90;999.90;;;17.60;99.90;;;;;;5096313;28;20038;-67
2023/10/11 09:09:14;;;;;;;1999.90;999.90;;;17.60;99.90;;;;;;5097342;28;20110;-67
2023/10/11 09:11:52;;;;;;;1999.90;999.90;;;17.60;99.90;;;;;;5100957;28;20038;-67
2023/10/11 09:14:22;;;;;;;1999.90;999.90;;;17.60;99.90;;;;;;5098297;28;20414;-67
2023/10/11 09:16:52;;;;;;;1999.90;999.90;;;17.70;99.90;;;;;;5102059;28;20047;-67
2023/10/11 09:19:21;;;;;;;1999.90;999.90;;;17.70;99.90;;;;;;5095380;28;20032;-66
2023/10/11 09:22:03;;;;;;;1999.90;999.90;;;17.70;99.90;;;;;;5096111;28;20311;-67
2023/10/11 09:24:38;;;;;;;1999.90;999.90;;;17.70;99.90;;;;;;5098829;28;20023;-67
2023/10/11 09:27:18;;;;;;;1999.90;999.90;;;17.80;99.90;;;;;;5095587;28;20031;-66
2023/10/11 09:29:49;;;;;;;1999.90;999.90;;;17.80;99.90;;;;;;5096441;28;20052;-66
2023/10/11 09:32:27;;;;;;;1999.90;999.90;;;17.80;99.90;;;;;;5097040;28;20036;-67
2023/10/11 09:34:54;;;;;;;1999.90;999.90;;;17.90;99.90;;;;;;5103249;27;20292;-76
2023/10/11 09:37:23;;;;;;;1999.90;999.90;;;17.90;99.90;;;;;;5111062;27;20030;-67
2023/10/11 09:39:51;;;;;;;1999.90;999.90;;;18.00;99.90;;;;;;5104923;27;20514;-66
2023/10/11 09:42:21;;;;;;;1999.90;999.90;;;18.00;99.90;;;;;;5095138;28;20059;-77
2023/10/11 09:44:47;;;;;;;1999.90;999.90;;;18.10;99.90;;;;;;5106360;28;20031;-68
2023/10/11 09:47:16;;;;;;;1999.90;999.90;;;18.10;99.90;;;;;;5096712;28;20216;-67
2023/10/11 09:49:43;;;;;;;1999.90;999.90;;;18.10;99.90;;;;;;5099413;27;20107;-67
2023/10/11 09:52:17;;;;;;;1999.90;999.90;;;18.20;99.90;;;;;;5094854;27;20028;-66
2023/10/11 09:54:44;;;;;;;1999.90;999.90;;;18.30;99.90;;;;;;5105619;27;20036;-67
2023/10/11 09:57:29;;;;;;;;;;;18.30;99.90;;;;;;5095470;28;20024;-67
2023/10/11 10:00:16;;;;;;;1999.90;999.90;;;18.50;99.90;;;;;;5100780;27;19916;-67
2023/10/11 10:02:50;;;;;;;1999.90;999.90;;;18.50;99.90;;;;;;5099002;27;20072;-67
2023/10/11 10:05:17;;;;;;;1999.90;999.90;;;18.70;99.90;;;;;;5104732;27;20111;-67
2023/10/11 10:07:43;;;;;;;1999.90;999.90;;;19.00;99.90;;;;;;5105461;27;20107;-67
2023/10/11 10:10:11;;;;;;;1999.90;999.90;;;19.20;99.90;;;;;;5103015;27;20031;-77
2023/10/11 10:12:41;;;;;;;1999.90;999.90;;;19.30;99.90;;;;;;5100792;27;20069;-67
2023/10/11 10:15:20;;;;;;;1999.90;999.90;;;19.50;99.90;;;;;;5105178;27;20020;-68
2023/10/11 10:18:00;;;;;;;1999.90;999.90;;;19.60;99.90;;;;;;5101324;27;20031;-67
2023/10/11 10:20:34;;;;;;;1999.90;999.90;;;19.60;99.90;;;;;;5107757;27;20055;-67
2023/10/11 10:23:20;;;;;;;1999.90;999.90;;;19.60;99.90;;;;;;5108426;28;20467;-67
2023/10/11 10:26:13;;;;;;;1999.90;999.90;;;19.50;99.90;;;;;;5105284;28;20407;-67
2023/10/11 10:28:39;;;;;;;1999.90;999.90;;;19.40;99.90;;;;;;5102061;28;20417;-67
2023/10/11 10:31:09;;;;;;;1999.90;999.90;;;19.50;99.90;;;;;;5108032;27;20047;-68
2023/10/11 10:33:36;;;;;;;1999.90;999.90;;;19.60;99.90;;;;;;5110466;27;20656;-69
2023/10/11 10:36:17;;;;;;;;;;;19.70;99.90;;;;;;5108150;28;20322;-67
2023/10/11 10:38:58;;;;;;;1999.90;999.90;;;19.90;99.90;;;;;;5115512;28;19915;-67
2023/10/11 10:41:27;;;;;;;1999.90;999.90;;;20.00;99.90;;;;;;5104112;28;20043;-67
2023/10/11 10:44:04;;;;;;;1999.90;999.90;;;20.30;99.90;;;;;;5101295;28;20055;-67
2023/10/11 10:46:50;;;;;;;1999.90;999.90;;;20.30;99.90;;;;;;5106504;28;20027;-67
2023/10/11 10:49:20;;;;;;;1999.90;999.90;;;20.40;99.90;;;;;;5095841;28;20449;-67
2023/10/11 10:51:51;;;;;;;1999.90;999.90;;;20.30;99.90;;;;;;5113044;28;20369;-68
2023/10/11 10:54:23;;;;;;;1999.90;999.90;;;20.20;99.90;;;;;;5102335;28;20069;-67
2023/10/11 10:56:53;;;;;;;1999.90;999.90;;;20.10;99.90;;;;;;5106188;28;20065;-67
2023/10/11 10:59:20;;;;;;;1999.90;999.90;;;20.10;99.90;;;;;;5097851;28;20073;-67
2023/10/11 11:01:48;;;;;;;1999.90;999.90;;;20.10;99.90;;;;;;5103312;28;20028;-67
2023/10/11 11:04:16;;;;;;;1999.90;999.90;;;20.00;99.90;;;;;;5107024;28;20032;-68
2023/10/11 11:06:47;;;;;;;1999.90;999.90;;;20.00;99.90;;;;;;5105323;28;20123;-67
2023/10/11 11:09:18;;;;;;;1999.90;999.90;;;19.90;99.90;;;;;;5102577;28;20023;-68
2023/10/11 11:11:49;;;;;;;1999.90;999.90;;;20.00;99.90;;;;;;5106354;28;20028;-68
2023/10/11 11:14:19;;;;;;;1999.90;999.90;;;20.10;99.90;;;;;;5107508;28;20035;-68
2023/10/11 11:16:54;;;;;;;1999.90;999.90;;;20.10;99.90;;;;;;5112872;28;20034;-67
2023/10/11 11:19:25;;;;;;;1999.90;999.90;;;20.20;99.90;;;;;;5089973;28;20072;-68
2023/10/11 11:22:06;;;;;;;1999.90;999.90;;;20.20;99.90;;;;;;5110009;28;20031;-67
2023/10/11 11:24:34;;;;;;;1999.90;999.90;;;20.20;99.90;;;;;;5107784;28;20110;-67
2023/10/11 11:27:14;;;;;;;1999.90;999.90;;;20.20;99.90;;;;;;5106610;28;20056;-68
2023/10/11 11:29:40;;;;;;;1999.90;999.90;;;20.20;99.90;;;;;;5110388;28;20023;-67
2023/10/11 11:32:15;;;;;;;1999.90;999.90;;;20.30;99.90;;;;;;5090301;28;20019;-68
2023/10/11 11:35:09;;;;;;;1999.90;999.90;;;20.50;99.90;;;;;;5109855;28;20099;-68
2023/10/11 11:37:39;;;;;;;1999.90;999.90;;;20.60;99.90;;;;;;5113270;28;20411;-68
2023/10/11 11:40:26;;;;;;;1999.90;999.90;;;20.60;99.90;;;;;;5111081;28;20042;-68
2023/10/11 11:42:51;;;;;;;1999.90;999.90;;;20.60;99.90;;;;;;5105551;28;20040;-74
2023/10/11 11:45:18;;;;;;;1999.90;999.90;;;20.60;99.90;;;;;;5112017;28;20049;-68
2023/10/11 11:47:55;;;;;;;1999.90;999.90;;;20.50;99.90;;;;;;5114392;28;20023;-68
2023/10/11 11:50:23;;;;;;;1999.90;999.90;;;20.50;99.90;;;;;;5108210;28;20052;-76
2023/10/11 11:52:48;;;;;;;1999.90;999.90;;;20.50;99.90;;;;;;5113476;28;20027;-67
2023/10/11 11:55:16;;;;;;;1999.90;999.90;;;20.50;99.90;;;;;;5114769;28;20023;-67
2023/10/11 11:57:42;;;;;;;1999.90;999.90;;;20.50;99.90;;;;;;5108941;28;20044;-67
2023/10/11 12:03:08;;;;;;;1999.90;999.90;;;20.30;99.90;;;;;;5027632;28;20048;-77
2023/10/11 12:05:40;;;;;;;1999.90;999.90;;;20.30;99.90;;;;;;5033774;28;20428;-67
2023/10/11 12:08:20;;;;;;;1999.90;999.90;;;20.30;99.90;;;;;;5029008;28;20038;-75
2023/10/11 12:10:52;;;;;;;1999.90;999.90;;;20.30;99.90;;;;;;5021820;28;20053;-68
2023/10/11 12:13:25;;;;;;;1999.90;999.90;;;20.20;99.90;;;;;;5027989;28;20080;-67
2023/10/11 12:15:54;;;;;;;1999.90;999.90;;;20.20;99.90;;;;;;5025004;28;20472;-67
2023/10/11 12:18:32;;;;;;;1999.90;999.90;;;20.20;99.90;;;;;;5028730;28;20040;-83
2023/10/11 12:20:58;;;;;;;1999.90;999.90;;;20.20;99.90;;;;;;5033447;28;20468;-67
2023/10/11 12:23:24;;;;;;;;;;;20.30;99.90;;;;;;5030010;28;20480;-67
2023/10/11 12:25:50;;;;;;;1999.90;999.90;;;20.30;99.90;;;;;;5033893;28;19909;-67
2023/10/11 12:28:16;;;;;;;1999.90;999.90;;;20.30;99.90;;;;;;5032853;28;20033;-67
2023/10/11 12:30:45;;;;;;;1999.90;999.90;;;20.30;99.90;;;;;;5027619;28;20474;-67
2023/10/11 12:33:11;;;;;;;1999.90;999.90;;;20.30;99.90;;;;;;5025744;28;20037;-67
2023/10/11 12:35:40;;;;;;;1999.90;999.90;;;20.30;99.90;;;;;;5026913;28;20044;-67
2023/10/11 12:38:06;;;;;;;1999.90;999.90;;;20.30;99.90;;;;;;5051587;28;20044;-66
2023/10/11 12:40:34;;;;;;;1999.90;999.90;;;20.30;99.90;;;;;;5102992;28;20026;-76
2023/10/11 12:43:02;;;;;;;1999.90;999.90;;;20.30;99.90;;;;;;5099334;28;20323;-67
2023/10/11 12:45:27;;;;;;;1999.90;999.90;;;20.30;99.90;;;;;;5111127;28;20021;-67
2023/10/11 12:47:53;;;;;;;1999.90;999.90;;;20.30;99.90;;;;;;5102448;28;20032;-66
2023/10/11 12:50:20;;;;;;;1999.90;999.90;;;20.30;99.90;;;;;;5103417;28;20122;-68
2023/10/11 12:52:46;;;;;;;1999.90;999.90;;;20.40;99.90;;;;;;5096339;28;20019;-67
2023/10/11 12:55:13;;;;;;;1999.90;999.90;;;20.40;99.90;;;;;;5102797;28;20360;-67
2023/10/11 12:57:41;;;;;;;1999.90;999.90;;;20.40;99.90;;;;;;5103980;28;20146;-67
2023/10/11 13:00:31;;;;;;;1999.90;999.90;;;20.40;99.90;;;;;;5105029;28;20028;-67
2023/10/11 13:03:18;;;;;;;1999.90;999.90;;;20.40;99.90;;;;;;5100519;28;20036;-67
2023/10/11 13:05:45;;;;;;;1999.90;999.90;;;20.30;99.90;;;;;;5101361;28;20111;-67
2023/10/11 13:08:11;;;;;;;1999.90;999.90;;;20.30;99.90;;;;;;5101919;28;20049;-67